Time;durP1;ratioP1;P1;durP2;ratioP2;P2;SDS_P1;SDS_P2;PMS_P1;PMS_P2;Temp;Humidity;BMP_temperature;BMP_pressure;BME280_temperature;BME280_humidity;BME280_pressure;Samples;Min_cycle;Max_cycle;Signal;HPM_P1;HPM_P2
2024/02/25 00:01:34;;;;;;;14.60;7.80;;;;;;;13.14;72.46;98906.10;105850;1254;74191;-29
2024/02/25 00:04:02;;;;;;;13.90;8.30;;;;;;;12.92;72.76;98905.40;105895;1254;72563;-27
2024/02/25 00:06:29;;;;;;;12.30;7.00;;;;;;;12.55;74.05;98907.22;105820;1254;61818;-27
2024/02/25 00:08:56;;;;;;;16.20;7.80;;;;;;;12.92;73.43;98905.69;105908;1256;61102;-30
2024/02/25 00:11:23;;;;;;;15.40;6.80;;;;;;;13.13;72.40;98905.83;105777;1254;73805;-27
2024/02/25 00:13:51;;;;;;;12.10;6.80;;;;;;;12.97;72.60;98906.17;105557;1254;74400;-27
2024/02/25 00:16:18;;;;;;;14.70;7.90;;;;;;;12.70;73.33;98903.96;105565;1254;73022;-27
2024/02/25 00:18:45;;;;;;;12.70;6.10;;;;;;;12.43;74.47;98906.02;105516;1252;61800;-27
2024/02/25 00:21:13;;;;;;;16.80;8.90;;;;;;;12.75;74.01;98903.42;105534;1256;61163;-27
2024/02/25 00:23:40;;;;;;;14.60;7.80;;;;;;;13.08;72.65;98895.85;105818;1254;73815;-27
2024/02/25 00:26:09;;;;;;;12.70;6.70;;;;;;;13.01;72.35;98890.09;105704;1254;74069;-27
2024/02/25 00:28:37;;;;;;;13.80;7.60;;;;;;;12.75;73.11;98897.38;105821;1254;72643;-27
2024/02/25 00:31:04;;;;;;;13.20;7.00;;;;;;;12.41;74.11;98893.64;105666;1254;61051;-27
2024/02/25 00:33:31;;;;;;;14.30;6.70;;;;;;;12.68;74.02;98896.42;105647;1256;61164;-27
2024/02/25 00:35:59;;;;;;;11.30;6.70;;;;;;;13.02;72.58;98893.30;105664;1254;73850;-27
2024/02/25 00:38:27;;;;;;;14.80;8.40;;;;;;;12.98;72.30;98895.20;105501;1254;74109;-26
2024/02/25 00:40:53;;;;;;;14.60;7.50;;;;;;;12.80;72.67;98893.45;105587;1256;71492;-27
2024/02/25 00:43:29;;;;;;;17.00;8.20;;;;;;;12.47;73.93;98890.70;105519;1257;61049;-26
2024/02/25 00:45:56;;;;;;;12.90;7.20;;;;;;;12.25;75.24;98894.58;105547;1260;61173;-25
2024/02/25 00:48:23;;;;;;;13.10;7.40;;;;;;;12.82;73.53;98893.94;105633;1254;74193;-25
2024/02/25 00:50:50;;;;;;;15.10;7.20;;;;;;;12.97;72.14;98888.02;105565;1254;74137;-25
2024/02/25 00:53:18;;;;;;;16.90;8.30;;;;;;;12.81;72.73;98889.35;105493;1254;72738;-25
2024/02/25 00:55:45;;;;;;;13.50;8.40;;;;;;;12.57;73.36;98885.93;105709;1254;61152;-25
2024/02/25 00:58:13;;;;;;;12.50;6.60;;;;;;;12.26;74.48;98881.08;105875;1257;61125;-25
2024/02/25 01:00:40;;;;;;;13.70;7.20;;;;;;;12.61;74.04;98880.86;105842;1254;72722;-25
2024/02/25 01:03:07;;;;;;;13.50;7.90;;;;;;;12.93;72.57;98882.65;105787;1254;73205;-25
2024/02/25 01:05:35;;;;;;;11.80;6.20;;;;;;;12.84;72.52;98883.24;105680;1253;72488;-26
2024/02/25 01:08:04;;;;;;;19.40;10.60;;;;;;;12.54;73.33;98881.88;105596;1254;61066;-25
2024/02/25 01:10:31;;;;;;;15.30;8.90;;;;;;;12.34;74.11;98880.02;105503;1254;61119;-25
2024/02/25 01:12:59;;;;;;;15.20;8.00;;;;;;;12.09;74.87;98877.42;105586;1254;73551;-25
2024/02/25 01:15:26;;;;;;;15.50;6.60;;;;;;;12.49;74.42;98880.56;105256;1254;419198;-25
2024/02/25 01:17:53;;;;;;;14.80;8.00;;;;;;;12.77;73.00;98882.52;105623;1254;72592;-25
2024/02/25 01:20:21;;;;;;;12.20;7.60;;;;;;;12.69;72.77;98884.86;105522;1254;61054;-25
2024/02/25 01:22:48;;;;;;;15.20;9.20;;;;;;;12.48;73.53;98882.74;105671;1256;61262;-25
2024/02/25 01:25:15;;;;;;;13.80;7.30;;;;;;;12.14;74.68;98883.60;105910;1254;73932;-25
2024/02/25 01:27:44;;;;;;;15.20;8.10;;;;;;;12.51;73.77;98882.45;105797;1257;74777;-25
2024/02/25 01:30:14;;;;;;;10.50;6.30;;;;;;;12.78;72.89;98873.52;105547;1254;73072;-26
2024/02/25 01:32:41;;;;;;;15.90;9.20;;;;;;;12.61;73.14;98874.06;105523;1259;61230;-26
2024/02/25 01:35:12;;;;;;;13.20;8.60;;;;;;;12.43;73.60;98868.43;105750;1257;61126;-26
2024/02/25 01:37:39;;;;;;;15.40;9.20;;;;;;;12.17;74.34;98863.95;105667;1254;73700;-26
2024/02/25 01:40:07;;;;;;;16.00;8.80;;;;;;;12.22;74.98;98866.50;105563;1256;74211;-25
2024/02/25 01:42:35;;;;;;;18.00;7.60;;;;;;;12.62;73.29;98864.77;105577;1254;72276;-25
2024/02/25 01:47:37;;;;;;;16.80;10.10;;;;;;;12.13;74.29;98864.20;102792;1295;600152;-24
2024/02/25 01:50:06;;;;;;;17.10;8.70;;;;;;;11.93;75.39;98864.54;104850;1267;61014;-24
2024/02/25 01:52:33;;;;;;;13.40;7.90;;;;;;;12.20;75.01;98863.31;104913;1272;61167;-24
2024/02/25 02:02:37;;;;;;;17.60;8.80;;;;;;;11.87;75.68;98858.30;102737;1295;600078;-24
2024/02/25 02:05:06;;;;;;;15.70;7.50;;;;;;;12.17;75.36;98850.61;105130;1267;61154;-24
2024/02/25 02:07:34;;;;;;;17.70;9.50;;;;;;;12.37;73.99;98851.77;104693;1267;61056;-24
2024/02/25 02:17:42;;;;;;;14.60;8.10;;;;;;;12.02;75.48;98840.58;102685;1293;599272;-24
2024/02/25 02:20:11;;;;;;;15.00;8.40;;;;;;;12.38;74.08;98842.59;104774;1274;61151;-24
2024/02/25 02:22:39;;;;;;;12.20;7.80;;;;;;;12.29;73.79;98837.89;104829;1271;61119;-24
2024/02/25 02:32:43;;;;;;;15.50;9.30;;;;;;;12.21;74.48;98827.05;102664;1294;600287;-24
2024/02/25 02:35:11;;;;;;;17.30;6.80;;;;;;;11.94;74.95;98828.61;104826;1266;61271;-24
2024/02/25 02:37:39;;;;;;;12.50;5.30;;;;;;;11.60;76.14;98831.80;104814;1270;61216;-24
2024/02/25 02:40:08;;;;;;;11.80;7.10;;;;;;;11.74;76.32;98835.48;104824;1272;72213;-24
2024/02/25 02:42:38;;;;;;;11.90;7.00;;;;;;;12.02;74.72;98832.59;104890;1271;74291;-24
2024/02/25 02:45:06;;;;;;;13.30;7.30;;;;;;;11.92;74.66;98835.42;104794;1273;72253;-24
2024/02/25 02:47:34;;;;;;;14.90;7.40;;;;;;;11.63;75.66;98833.65;104779;1272;186748;-24
2024/02/25 02:57:38;;;;;;;15.30;8.80;;;;;;;11.63;75.68;98824.75;102720;1290;600245;-24
2024/02/25 03:00:08;;;;;;;13.80;8.20;;;;;;;11.40;76.73;98828.85;104872;1270;61683;-24
2024/02/25 03:02:36;;;;;;;10.80;6.10;;;;;;;11.79;75.57;98825.77;104788;1263;61029;-24
2024/02/25 03:12:39;;;;;;;13.20;7.90;;;;;;;11.36;76.55;98839.68;102761;1289;600696;-26
2024/02/25 03:22:44;;;;;;;16.90;8.10;;;;;;;11.45;75.15;98857.79;102738;1295;599428;-25
2024/02/25 03:31:49;;;;;;;14.20;7.60;;;;;;;11.53;75.53;98867.08;102661;1294;599321;-25
2024/02/25 03:34:17;;;;;;;24.40;9.90;;;;;;;11.20;76.59;98866.80;104908;1269;61260;-24
2024/02/25 03:43:14;;;;;;;19.60;8.40;;;;;;;11.41;75.70;98883.20;102736;1294;599348;-24
2024/02/25 03:45:42;;;;;;;14.30;7.80;;;;;;;11.18;76.52;98881.55;104861;1270;61118;-25
2024/02/25 03:48:10;;;;;;;18.90;9.00;;;;;;;11.39;76.44;98880.95;105290;1263;61101;-25
2024/02/25 03:58:18;;;;;;;24.30;9.80;;;;;;;11.16;76.51;98886.42;102766;1289;599268;-26
2024/02/25 04:00:46;;;;;;;17.40;8.80;;;;;;;11.18;76.79;98884.64;104862;1266;61186;-26
2024/02/25 04:03:14;;;;;;;24.30;9.30;;;;;;;11.58;75.21;98889.55;104879;1263;61170;-27
2024/02/25 04:05:42;;;;;;;19.30;9.20;;;;;;;11.50;75.16;98891.83;104870;1270;72256;-27
2024/02/25 04:08:10;;;;;;;20.60;11.00;;;;;;;11.25;75.82;98897.40;104801;1266;74411;-27
2024/02/25 04:10:38;;;;;;;23.90;12.00;;;;;;;11.14;76.40;98897.53;104789;1269;72685;-27
2024/02/25 04:19:53;;;;;;;18.80;8.30;;;;;;;11.49;75.47;98887.58;102771;1290;600304;-25
2024/02/25 04:22:22;;;;;;;17.60;10.10;;;;;;;11.30;75.70;98895.43;105058;1267;61171;-24
2024/02/25 04:24:50;;;;;;;14.20;7.50;;;;;;;11.00;76.72;98891.75;104768;1273;61302;-24
2024/02/25 04:27:19;;;;;;;19.70;9.90;;;;;;;11.29;76.00;98897.08;104762;1268;72462;-25
2024/02/25 04:29:47;;;;;;;21.30;9.40;;;;;;;11.45;75.22;98896.91;105251;1267;74279;-25
2024/02/25 04:39:57;;;;;;;18.30;8.90;;;;;;;11.30;76.11;98897.55;103055;1290;599063;-25
2024/02/25 04:50:03;;;;;;;15.30;7.90;;;;;;;11.35;75.96;98902.31;102665;1292;599907;-25
2024/02/25 04:52:31;;;;;;;19.40;10.30;;;;;;;11.55;74.62;98905.76;104793;1270;61194;-25
2024/02/25 04:54:59;;;;;;;17.20;9.10;;;;;;;11.37;74.86;98909.78;104776;1267;61347;-25
2024/02/25 04:57:27;;;;;;;18.80;9.40;;;;;;;11.05;75.96;98906.06;104842;1270;70671;-25
2024/02/25 04:59:55;;;;;;;17.60;8.40;;;;;;;11.15;76.32;98904.14;104782;1281;74643;-25
2024/02/25 05:10:04;;;;;;;22.20;9.50;;;;;;;11.18;75.42;98897.15;102744;1292;599435;-24
2024/02/25 05:12:32;;;;;;;18.60;9.20;;;;;;;11.25;75.92;98896.73;104831;1271;61196;-24
2024/02/25 05:15:00;;;;;;;14.40;7.70;;;;;;;11.64;74.28;98899.25;104866;1266;61260;-24
2024/02/25 05:17:28;;;;;;;20.80;10.30;;;;;;;11.56;74.27;98901.23;104863;1270;71231;-24
2024/02/25 05:19:56;;;;;;;23.50;10.80;;;;;;;11.38;74.52;98901.71;104886;1264;74302;-25
2024/02/25 05:29:59;;;;;;;21.50;9.00;;;;;;;11.80;73.33;98913.71;102749;1291;600127;-24
2024/02/25 05:32:27;;;;;;;21.10;10.00;;;;;;;11.64;73.69;98916.86;104819;1268;61254;-25
2024/02/25 05:34:55;;;;;;;17.80;10.00;;;;;;;11.36;74.39;98920.31;104823;1269;61163;-24
2024/02/25 05:37:25;;;;;;;18.10;7.70;;;;;;;11.10;75.65;98918.73;104910;1270;72286;-24
2024/02/25 05:46:04;;;;;;;13.70;8.20;;;;;;;11.56;73.84;98909.75;102754;1292;600115;-24
2024/02/25 05:48:32;;;;;;;14.10;7.70;;;;;;;11.16;75.49;98906.89;104821;1271;61245;-24
2024/02/25 05:51:01;;;;;;;21.20;9.70;;;;;;;11.33;75.57;98902.46;104820;1271;61183;-24
2024/02/25 06:01:08;;;;;;;12.70;6.60;;;;;;;11.03;76.57;98901.17;102749;1293;598929;-24
2024/02/25 06:03:36;;;;;;;10.80;6.50;;;;;;;11.38;75.48;98901.16;104819;1267;61218;-27
2024/02/25 06:06:05;;;;;;;12.90;7.80;;;;;;;11.54;74.76;98905.14;105034;1269;61173;-24
2024/02/25 06:08:34;;;;;;;19.50;9.30;;;;;;;11.38;75.40;98911.99;104812;1267;72202;-24
2024/02/25 06:18:42;;;;;;;20.40;9.50;;;;;;;11.71;74.34;98916.75;102635;1292;600064;-24
2024/02/25 06:21:10;;;;;;;15.50;8.10;;;;;;;11.61;74.31;98922.67;105001;1269;61209;-24
2024/02/25 06:23:38;;;;;;;22.90;11.00;;;;;;;11.27;75.20;98922.67;104879;1272;61143;-24
2024/02/25 06:26:07;;;;;;;19.20;8.20;;;;;;;11.05;76.75;98920.33;104843;1266;72196;-24
2024/02/25 06:28:36;;;;;;;15.80;7.20;;;;;;;11.48;75.22;98920.83;104771;1270;74355;-28
2024/02/25 06:38:40;;;;;;;18.70;8.70;;;;;;;11.12;77.19;98937.40;102754;1295;599928;-24
2024/02/25 06:41:19;;;;;;;16.50;7.80;;;;;;;11.54;75.36;98938.91;104886;1265;61171;-25
2024/02/25 06:43:47;;;;;;;17.00;9.10;;;;;;;11.50;75.21;98931.64;104947;1264;61129;-24
2024/02/25 06:53:51;;;;;;;17.70;9.20;;;;;;;11.86;73.84;98930.61;102713;1295;600114;-24
2024/02/25 06:56:19;;;;;;;18.20;7.80;;;;;;;11.62;74.43;98928.10;104826;1270;61139;-24
2024/02/25 06:58:47;;;;;;;15.30;8.50;;;;;;;11.39;74.82;98926.47;104814;1270;61130;-25
2024/02/25 07:01:16;;;;;;;17.70;7.20;;;;;;;11.11;76.47;98927.09;104951;1269;70445;-26
2024/02/25 07:03:44;;;;;;;11.60;6.30;;;;;;;11.48;75.09;98930.09;104954;1270;73353;-26
2024/02/25 07:06:12;;;;;;;17.40;9.30;;;;;;;11.64;74.15;98930.06;104830;1267;72669;-26
2024/02/25 07:08:41;;;;;;;14.10;7.10;;;;;;;11.56;74.18;98935.08;105074;1263;158110;-25
2024/02/25 07:11:20;;;;;;;16.60;7.80;;;;;;;11.23;75.22;98929.19;105152;1262;61144;-27
2024/02/25 07:13:51;;;;;;;14.10;7.50;;;;;;;11.25;75.90;98927.47;105227;1265;71167;-25
2024/02/25 07:16:19;;;;;;;15.00;7.20;;;;;;;11.49;74.96;98924.73;104864;1270;73272;-25
2024/02/25 07:18:47;;;;;;;11.30;6.80;;;;;;;11.49;74.68;98929.09;105185;1267;72646;-25
2024/02/25 07:21:16;;;;;;;12.60;6.10;;;;;;;11.36;75.24;98923.93;105086;1264;63903;-25
2024/02/25 07:23:44;;;;;;;12.40;7.00;;;;;;;11.11;76.02;98926.73;104875;1264;61087;-25
2024/02/25 07:26:13;;;;;;;15.30;9.10;;;;;;;11.42;74.82;98927.25;104921;1264;72999;-25
2024/02/25 07:28:41;;;;;;;12.50;5.70;;;;;;;11.56;74.17;98924.48;104911;1264;73045;-25
2024/02/25 07:31:16;;;;;;;12.70;7.00;;;;;;;11.43;74.53;98929.73;105021;1269;72676;-25
2024/02/25 07:33:46;;;;;;;11.10;6.20;;;;;;;11.15;75.47;98927.84;104669;1270;61141;-25
2024/02/25 07:36:15;;;;;;;14.50;7.40;;;;;;;11.31;75.33;98928.42;104775;1263;61090;-25
2024/02/25 07:38:44;;;;;;;14.70;8.20;;;;;;;11.62;74.44;98933.54;104838;1264;72246;-25
2024/02/25 07:41:12;;;;;;;13.80;7.30;;;;;;;11.66;73.79;98932.16;105139;1263;73104;-25
2024/02/25 07:43:40;;;;;;;14.90;8.80;;;;;;;11.45;74.47;98932.56;105132;1268;70425;-25
2024/02/25 07:46:08;;;;;;;15.30;7.60;;;;;;;11.23;75.33;98934.11;104872;1267;61624;-25
2024/02/25 07:48:39;;;;;;;12.60;7.40;;;;;;;11.61;74.03;98929.56;105101;1267;61144;-24
2024/02/25 07:58:43;;;;;;;17.10;7.60;;;;;;;11.52;74.92;98930.70;102664;1292;599365;-24
2024/02/25 08:01:12;;;;;;;15.10;7.20;;;;;;;11.88;73.36;98935.13;104793;1267;61174;-26
2024/02/25 08:03:41;;;;;;;13.60;7.40;;;;;;;11.87;72.78;98932.36;104841;1265;61180;-26
2024/02/25 08:06:08;;;;;;;13.60;7.70;;;;;;;11.62;73.63;98931.95;104703;1268;71017;-26
2024/02/25 08:08:37;;;;;;;14.10;6.80;;;;;;;11.28;75.11;98931.21;104786;1267;73096;-26
2024/02/25 08:11:05;;;;;;;12.70;6.30;;;;;;;11.58;74.53;98929.34;104800;1267;71521;-26
2024/02/25 08:13:32;;;;;;;16.20;8.10;;;;;;;11.93;72.91;98928.36;104955;1267;162541;-25
2024/02/25 08:23:39;;;;;;;16.90;8.10;;;;;;;11.58;74.62;98936.83;102662;1292;600262;-24
2024/02/25 08:26:08;;;;;;;11.20;6.00;;;;;;;12.14;72.64;98937.18;104824;1272;61245;-24
2024/02/25 08:34:49;;;;;;;14.70;8.50;;;;;;;11.70;73.38;98920.98;102684;1292;600183;-23
2024/02/25 08:37:18;;;;;;;13.40;6.50;;;;;;;11.88;73.49;98925.73;104825;1267;61112;-23
2024/02/25 08:39:46;;;;;;;16.60;9.20;;;;;;;12.18;71.86;98927.94;104887;1270;62806;-24
2024/02/25 08:42:13;;;;;;;18.80;8.30;;;;;;;12.27;71.48;98930.40;104867;1267;71045;-24
2024/02/25 08:44:42;;;;;;;17.10;8.30;;;;;;;12.15;71.71;98921.63;104798;1267;74329;-24
2024/02/25 08:47:10;;;;;;;13.50;6.70;;;;;;;11.76;72.81;98911.63;104802;1267;71401;-24
2024/02/25 08:49:37;;;;;;;22.70;8.10;;;;;;;11.93;73.26;98911.70;104596;1259;1410980;-23
2024/02/25 08:52:05;;;;;;;15.10;8.40;;;;;;;12.06;72.08;98902.89;105607;1259;62155;-24
2024/02/25 08:54:35;;;;;;;18.90;9.00;;;;;;;12.12;71.86;98912.43;105492;1259;73006;-24
2024/02/25 08:57:05;;;;;;;17.70;9.10;;;;;;;11.91;72.06;98915.47;105191;1254;74318;-24
2024/02/25 08:59:33;;;;;;;17.50;8.40;;;;;;;11.48;73.69;98912.10;105542;1257;72652;-24
2024/02/25 09:02:04;;;;;;;13.10;6.80;;;;;;;11.69;73.44;98912.06;105592;1258;63888;-23
2024/02/25 09:04:32;;;;;;;15.00;7.10;;;;;;;12.16;71.70;98917.15;105687;1254;61298;-24
2024/02/25 09:07:01;;;;;;;14.70;8.00;;;;;;;12.04;71.55;98918.52;105577;1260;76937;-24
2024/02/25 09:09:30;;;;;;;11.90;6.90;;;;;;;11.82;71.98;98916.65;105540;1262;73035;-24
2024/02/25 09:11:57;;;;;;;14.60;8.00;;;;;;;11.45;73.77;98919.89;105366;1261;75341;-26
2024/02/25 09:14:27;;;;;;;12.60;7.80;;;;;;;11.79;73.13;98916.63;105238;1260;61144;-25
2024/02/25 09:16:56;;;;;;;16.40;7.10;;;;;;;12.12;71.43;98920.62;105279;1255;61056;-25
2024/02/25 09:19:27;;;;;;;13.60;7.60;;;;;;;12.05;71.56;98920.59;105419;1260;75767;-25
2024/02/25 09:21:55;;;;;;;17.70;9.60;;;;;;;11.75;72.34;98918.79;105595;1260;77118;-24
2024/02/25 09:24:25;;;;;;;15.90;7.60;;;;;;;11.61;73.21;98916.09;105345;1256;71438;-24
2024/02/25 09:26:53;;;;;;;19.50;9.90;;;;;;;11.90;72.56;98918.35;105249;1256;61141;-24
2024/02/25 09:36:58;;;;;;;16.70;8.70;;;;;;;11.86;73.23;98910.17;102717;1292;600068;-23
2024/02/25 09:39:26;;;;;;;16.10;7.90;;;;;;;12.15;72.21;98915.17;104842;1265;61136;-24
2024/02/25 09:49:37;;;;;;;19.20;9.70;;;;;;;11.97;72.70;98906.79;103182;1285;599755;-25
2024/02/25 09:52:08;;;;;;;19.00;10.50;;;;;;;12.06;71.92;98913.85;104789;1266;61145;-26
2024/02/25 09:54:36;;;;;;;15.50;9.90;;;;;;;12.00;71.93;98910.55;104824;1268;61141;-26
2024/02/25 09:57:04;;;;;;;16.60;9.00;;;;;;;11.78;72.60;98907.98;104864;1271;70986;-26
2024/02/25 09:59:32;;;;;;;14.00;7.90;;;;;;;11.97;72.50;98906.14;104874;1271;75744;-26
2024/02/25 10:02:02;;;;;;;19.30;7.60;;;;;;;12.40;70.97;98900.91;104798;1265;71398;-25
2024/02/25 10:04:31;;;;;;;13.40;7.80;;;;;;;12.41;70.43;98898.52;104947;1263;61116;-26
2024/02/25 10:07:03;;;;;;;22.70;10.00;;;;;;;12.21;71.16;98897.42;105048;1268;62570;-26
2024/02/25 10:09:31;;;;;;;14.20;7.20;;;;;;;11.86;71.71;98892.16;105063;1263;74712;-26
2024/02/25 10:12:01;;;;;;;15.60;8.50;;;;;;;11.92;72.26;98891.20;104847;1272;76292;-26
2024/02/25 10:14:31;;;;;;;19.90;9.20;;;;;;;12.30;71.41;98900.02;104782;1268;71452;-26
2024/02/25 10:17:03;;;;;;;20.20;8.60;;;;;;;12.29;71.04;98902.95;104969;1268;61365;-26
2024/02/25 10:19:31;;;;;;;20.60;10.40;;;;;;;12.14;71.31;98903.91;104796;1263;61057;-26
2024/02/25 10:22:16;;;;;;;16.90;8.20;;;;;;;11.97;71.99;98907.86;104873;1268;74649;-26
2024/02/25 10:24:44;;;;;;;14.60;8.30;;;;;;;12.13;72.08;98906.42;104982;1263;77173;-26
2024/02/25 10:27:13;;;;;;;22.60;8.50;;;;;;;12.40;70.56;98911.73;105115;1268;75231;-25
2024/02/25 10:29:52;;;;;;;21.10;11.00;;;;;;;12.30;70.29;98910.82;104849;1273;61604;-26
2024/02/25 10:32:24;;;;;;;15.70;9.30;;;;;;;12.12;70.60;98910.71;104740;1263;64051;-26
2024/02/25 10:34:54;;;;;;;14.20;7.60;;;;;;;11.81;71.66;98910.83;104817;1263;75753;-25
2024/02/25 10:45:02;;;;;;;19.00;9.30;;;;;;;12.41;70.19;98914.06;102748;1295;599369;-24
2024/02/25 10:47:31;;;;;;;19.90;9.50;;;;;;;12.14;70.38;98913.67;104980;1269;61701;-24
2024/02/25 10:50:00;;;;;;;19.40;7.10;;;;;;;12.10;71.35;98911.08;104864;1267;61429;-24
2024/02/25 10:52:28;;;;;;;18.40;9.00;;;;;;;12.60;69.61;98912.48;104770;1267;73989;-24
2024/02/25 10:54:57;;;;;;;16.80;7.30;;;;;;;12.64;68.99;98905.65;104815;1267;77148;-25
2024/02/25 10:57:25;;;;;;;18.90;9.40;;;;;;;12.38;69.62;98906.16;104815;1270;75156;-24
2024/02/25 10:59:53;;;;;;;19.00;9.70;;;;;;;12.06;70.90;98905.20;104733;1264;358942;-24
2024/02/25 11:02:26;;;;;;;18.00;8.00;;;;;;;11.89;71.82;98906.09;104776;1269;62782;-24
2024/02/25 11:04:55;;;;;;;16.40;9.30;;;;;;;12.37;70.50;98906.07;104926;1263;73472;-24
2024/02/25 11:07:23;;;;;;;20.50;9.90;;;;;;;12.64;69.44;98899.55;104949;1269;76761;-24
2024/02/25 11:09:51;;;;;;;16.60;8.70;;;;;;;12.56;69.75;98897.64;105085;1264;75454;-25
2024/02/25 11:12:26;;;;;;;19.70;9.10;;;;;;;12.42;69.80;98893.27;104758;1267;61486;-24
2024/02/25 11:15:00;;;;;;;17.60;9.00;;;;;;;12.18;70.19;98896.59;105248;1259;61036;-25
2024/02/25 11:17:30;;;;;;;17.10;7.60;;;;;;;12.05;70.95;98892.55;105291;1264;75880;-25
2024/02/25 11:20:08;;;;;;;15.60;8.70;;;;;;;12.50;69.48;98896.15;105281;1257;77159;-25
2024/02/25 11:22:42;;;;;;;17.40;8.20;;;;;;;12.60;68.89;98891.07;105725;1254;76745;-25
2024/02/25 11:25:36;;;;;;;14.80;7.80;;;;;;;12.36;69.24;98879.52;105678;1259;61260;-25
2024/02/25 11:28:05;;;;;;;14.20;8.50;;;;;;;12.15;70.26;98876.40;105715;1259;62891;-25
2024/02/25 11:30:39;;;;;;;13.40;7.30;;;;;;;11.94;71.33;98874.03;105691;1259;75912;-25
2024/02/25 11:33:27;;;;;;;20.40;9.00;;;;;;;12.36;70.23;98875.63;105846;1257;77092;-25
2024/02/25 11:35:55;;;;;;;15.00;7.60;;;;;;;12.46;69.00;98870.77;105808;1254;75029;-25
2024/02/25 11:38:27;;;;;;;15.50;9.00;;;;;;;12.36;69.37;98868.56;105856;1256;61066;-25
2024/02/25 11:40:56;;;;;;;17.70;9.00;;;;;;;12.16;69.73;98868.72;105689;1254;61067;-25
2024/02/25 11:43:24;;;;;;;15.20;8.10;;;;;;;11.80;71.28;98865.89;105688;1254;74475;-25
2024/02/25 11:45:52;;;;;;;18.40;8.50;;;;;;;12.34;70.22;98864.02;105744;1254;76793;-26
2024/02/25 11:48:20;;;;;;;20.70;9.10;;;;;;;12.64;68.68;98860.59;105732;1254;73675;-25
2024/02/25 11:50:49;;;;;;;16.80;7.90;;;;;;;12.60;68.51;98862.33;105883;1253;62785;-25
2024/02/25 11:53:17;;;;;;;16.70;9.30;;;;;;;12.38;69.15;98862.95;105875;1254;63073;-25
2024/02/25 11:55:50;;;;;;;15.70;9.50;;;;;;;12.24;69.72;98860.08;105742;1254;73771;-25
2024/02/25 11:58:19;;;;;;;17.20;7.40;;;;;;;12.19;70.06;98861.04;105698;1254;77143;-25
2024/02/25 12:00:47;;;;;;;16.70;7.30;;;;;;;12.54;68.50;98862.55;105437;1257;74948;-25
2024/02/25 12:03:15;;;;;;;15.30;8.20;;;;;;;12.61;68.18;98858.42;105309;1262;61187;-25
2024/02/25 12:05:43;;;;;;;12.80;7.30;;;;;;;12.51;68.11;98860.09;105610;1258;62448;-25
2024/02/25 12:08:14;;;;;;;17.50;7.90;;;;;;;12.26;68.90;98854.65;105827;1254;75497;-26
2024/02/25 12:10:43;;;;;;;9.70;5.60;;;;;;;11.99;69.72;98861.22;105604;1254;78330;-25
2024/02/25 12:13:11;;;;;;;16.00;7.50;;;;;;;12.26;69.17;98863.70;105333;1260;73774;-25
2024/02/25 12:15:40;;;;;;;17.90;7.40;;;;;;;12.59;67.97;98861.18;105623;1257;62257;-25
2024/02/25 12:18:09;;;;;;;16.90;7.30;;;;;;;12.35;68.18;98850.30;105683;1253;61032;-25
2024/02/25 12:20:38;;;;;;;20.20;8.30;;;;;;;12.17;68.75;98853.08;105282;1254;74219;-26
2024/02/25 12:23:08;;;;;;;16.10;9.10;;;;;;;12.03;68.86;98853.54;105594;1257;76846;-26
2024/02/25 12:25:36;;;;;;;12.80;5.90;;;;;;;11.92;69.55;98854.89;105435;1258;75046;-26
2024/02/25 12:28:09;;;;;;;10.10;5.90;;;;;;;12.26;68.73;98852.56;105757;1259;62108;-25
2024/02/25 12:30:39;;;;;;;14.50;6.90;;;;;;;12.58;67.73;98851.02;105691;1254;62537;-25
2024/02/25 12:33:08;;;;;;;13.50;8.00;;;;;;;12.45;67.83;98854.13;105573;1259;74184;-26
2024/02/25 12:35:37;;;;;;;13.90;8.50;;;;;;;12.21;68.50;98853.36;105681;1254;76126;-26
2024/02/25 12:38:09;;;;;;;10.30;5.60;;;;;;;11.90;69.40;98844.83;105571;1254;72939;-26
2024/02/25 12:40:44;;;;;;;14.40;6.60;;;;;;;12.35;68.70;98840.28;105662;1254;62847;-26
2024/02/25 12:43:14;;;;;;;19.50;9.40;;;;;;;12.48;67.78;98846.89;105691;1254;62801;-27
2024/02/25 12:45:43;;;;;;;15.90;9.20;;;;;;;12.59;67.71;98848.38;105787;1259;75492;-27
2024/02/25 12:48:11;;;;;;;15.10;8.40;;;;;;;12.24;68.21;98848.73;105814;1257;75730;-27
2024/02/25 12:50:39;;;;;;;14.90;8.70;;;;;;;11.98;69.20;98854.67;105684;1254;76722;-27
2024/02/25 12:53:07;;;;;;;14.40;6.70;;;;;;;11.78;70.23;98853.88;105518;1254;64361;-27
2024/02/25 12:55:36;;;;;;;16.70;7.90;;;;;;;12.24;69.18;98854.35;105626;1259;61794;-27
2024/02/25 12:58:04;;;;;;;15.40;7.40;;;;;;;12.38;68.17;98855.45;105713;1254;75521;-27
2024/02/25 13:00:33;;;;;;;13.90;7.20;;;;;;;12.30;68.58;98855.39;105815;1254;77198;-28
2024/02/25 13:03:02;;;;;;;12.10;6.40;;;;;;;12.09;69.06;98849.73;105702;1254;73664;-28
2024/02/25 13:05:32;;;;;;;8.10;4.70;;;;;;;11.74;70.35;98841.73;105544;1254;61903;-27
2024/02/25 13:08:00;;;;;;;11.60;6.70;;;;;;;11.90;70.20;98835.91;109300;1254;61315;-27
2024/02/25 13:10:28;;;;;;;12.90;7.40;;;;;;;12.23;69.07;98837.52;109411;1254;75114;-27
2024/02/25 13:12:56;;;;;;;12.00;7.40;;;;;;;12.16;68.95;98834.30;109417;1254;76670;-27
2024/02/25 13:15:23;;;;;;;11.80;6.70;;;;;;;12.06;69.30;98833.65;109410;1254;74842;-27
2024/02/25 13:17:51;;;;;;;14.50;8.30;;;;;;;11.80;69.86;98830.73;109250;1254;59657;-27
2024/02/25 13:20:19;;;;;;;12.40;6.30;;;;;;;11.88;69.96;98826.52;109151;1254;61934;-27
2024/02/25 13:22:47;;;;;;;12.80;7.40;;;;;;;12.33;68.42;98821.46;109400;1254;74584;-27
2024/02/25 13:25:16;;;;;;;14.90;8.20;;;;;;;12.37;68.03;98817.63;109459;1254;76645;-27
2024/02/25 13:27:44;;;;;;;12.50;7.20;;;;;;;12.29;67.84;98820.63;109385;1254;73399;-27
2024/02/25 13:30:12;;;;;;;15.10;7.40;;;;;;;12.20;68.30;98821.42;109243;1254;62343;-27
2024/02/25 13:32:40;;;;;;;10.50;7.40;;;;;;;12.02;69.04;98823.39;109264;1254;62276;-27
2024/02/25 13:35:08;;;;;;;8.10;5.50;;;;;;;11.98;69.45;98824.30;109483;1253;75360;-27
2024/02/25 13:37:37;;;;;;;10.90;6.60;;;;;;;12.40;68.59;98824.63;109453;1253;76386;-27
2024/02/25 13:40:07;;;;;;;10.20;6.40;;;;;;;12.38;67.88;98812.52;109287;1254;72786;-27
2024/02/25 13:42:34;;;;;;;10.90;7.30;;;;;;;12.30;67.86;98813.56;109122;1253;61001;-27
2024/02/25 13:45:04;;;;;;;14.70;7.70;;;;;;;12.25;67.93;98818.54;109461;1254;60063;-26
2024/02/25 13:47:33;;;;;;;15.20;7.50;;;;;;;12.16;68.40;98813.45;109254;1253;74091;-26
2024/02/25 13:50:03;;;;;;;13.50;6.00;;;;;;;11.91;69.34;98815.86;109454;1254;77186;-26
2024/02/25 13:52:31;;;;;;;9.30;5.50;;;;;;;12.32;68.35;98811.48;109403;1254;74661;-27
2024/02/25 13:54:59;;;;;;;13.30;5.70;;;;;;;12.47;67.59;98817.79;109255;1254;60237;-27
2024/02/25 13:57:27;;;;;;;15.60;6.80;;;;;;;12.62;66.90;98817.73;109439;1253;61099;-27
2024/02/25 13:59:55;;;;;;;8.80;5.60;;;;;;;12.53;67.13;98815.81;109431;1254;75338;-26
2024/02/25 14:02:28;;;;;;;14.90;8.30;;;;;;;12.18;68.23;98821.42;109255;1254;76650;-26
2024/02/25 14:04:56;;;;;;;13.00;5.70;;;;;;;12.13;68.62;98818.10;109293;1254;74198;-26
2024/02/25 14:07:24;;;;;;;13.80;7.60;;;;;;;12.51;67.39;98811.59;109473;1257;62324;-26
2024/02/25 14:09:57;;;;;;;15.20;7.70;;;;;;;12.65;67.16;98813.27;109422;1254;60932;-26
2024/02/25 14:12:26;;;;;;;17.30;9.00;;;;;;;12.40;67.82;98814.52;109465;1254;75295;-26
2024/02/25 14:14:54;;;;;;;14.60;8.10;;;;;;;12.25;68.15;98819.43;109169;1254;74378;-26
2024/02/25 14:17:22;;;;;;;19.10;9.00;;;;;;;12.01;68.63;98816.05;109509;1254;74764;-27
2024/02/25 14:19:50;;;;;;;9.00;5.70;;;;;;;11.93;69.70;98818.77;109285;1254;62468;-26
2024/02/25 14:22:18;;;;;;;9.80;6.70;;;;;;;12.34;68.10;98810.71;109566;1253;62270;-27
2024/02/25 14:24:46;;;;;;;12.80;6.20;;;;;;;12.54;67.43;98809.13;109434;1254;76503;-26
2024/02/25 14:27:14;;;;;;;10.30;6.30;;;;;;;12.37;67.41;98808.07;109607;1253;75203;-26
2024/02/25 14:29:42;;;;;;;11.60;6.20;;;;;;;12.17;67.84;98808.16;109566;1254;72653;-26
2024/02/25 14:32:10;;;;;;;11.60;6.20;;;;;;;12.11;68.53;98812.00;109373;1254;62365;-26